Otisville, Michigan
Current Conditions -  °F | °C
As of 10:34 PM on Friday 28 Nov 2014 (Local Time) from KD95 Reporting Station
Light Snow Light Snow  
Wind Chill: 26°   Ceiling: 3900
Heat Index: 26°   Visibility: 5mi
Dew Point: 23°   Wind: 3mph
Humidity: 89%   Direction: 140°SE
Pressure: 30.1"   Gusts: NA
Location:  43.17°N, 83.52°W
Report Text: KD95 290334Z AUTO 14003KT 5SM -SN BKN039 OVC046 M04/M05 A3010 RMK AO2 T10361051
Loading
Personal Weather Stations






























Interactive Weather Map New forecast layout! Learn more

10-Day Weather Forecast

Advertisements
Track Severe Weather on mobile